Time;durP1;ratioP1;P1;durP2;ratioP2;P2;SDS_P1;SDS_P2;PMS_P1;PMS_P2;Temp;Humidity;BMP_temperature;BMP_pressure;BME280_temperature;BME280_humidity;BME280_pressure;Samples;Min_cycle;Max_cycle;Signal;HPM_P1;HPM_P2
2022/08/14 00:00:32;;;;;;;10.07;6.13;;;22.30;79.60;;;19.66;75.82;100196.16;5030491;28;20045;-77
2022/08/14 00:03:00;;;;;;;13.13;5.95;;;22.30;79.60;;;19.64;76.37;100194.75;5030398;28;20073;-77
2022/08/14 00:05:28;;;;;;;8.63;5.82;;;22.30;79.90;;;19.61;76.99;100195.25;5029313;28;20049;-77
2022/08/14 00:07:55;;;;;;;8.82;5.93;;;22.20;80.10;;;19.58;76.66;100191.06;5028011;28;20399;-77
2022/08/14 00:10:23;;;;;;;12.05;6.75;;;22.20;79.90;;;19.56;76.60;100186.91;5030103;28;20125;-77
2022/08/14 00:12:54;;;;;;;8.32;6.22;;;22.20;80.20;;;19.53;77.14;100183.56;5030212;28;20041;-77
2022/08/14 00:15:28;;;;;;;10.20;6.40;;;22.10;80.30;;;19.52;76.92;100179.13;5026611;28;20047;-77
2022/08/14 00:17:56;;;;;;;11.85;6.78;;;22.20;80.50;;;19.53;77.02;100172.53;5030186;28;20038;-77
2022/08/14 00:20:33;;;;;;;11.02;6.22;;;22.10;80.40;;;19.53;77.11;100171.66;5030399;28;20522;-77
2022/08/14 00:23:00;;;;;;;9.57;6.30;;;22.10;80.50;;;19.48;77.42;100172.44;5025374;28;20052;-77
2022/08/14 00:25:28;;;;;;;9.85;6.65;;;22.10;80.80;;;19.48;77.31;100169.66;5022940;28;20053;-77
2022/08/14 00:27:56;;;;;;;9.50;6.40;;;22.10;80.70;;;19.46;77.31;100166.31;5029354;28;20109;-77
2022/08/14 00:30:23;;;;;;;10.32;6.10;;;22.00;80.60;;;19.47;77.50;100167.16;5029496;28;20519;-77
2022/08/14 00:32:50;;;;;;;11.43;6.97;;;22.00;80.80;;;19.47;77.69;100167.16;5029297;28;20041;-77
2022/08/14 00:35:18;;;;;;;10.38;6.22;;;22.00;80.90;;;19.46;77.52;100169.09;5029633;28;20045;-77
2022/08/14 00:37:47;;;;;;;10.73;6.65;;;22.00;80.90;;;19.46;77.62;100165.50;5030286;28;20048;-77
2022/08/14 00:40:18;;;;;;;9.23;6.22;;;22.00;81.10;;;19.45;77.34;100161.88;5021312;28;20051;-77
2022/08/14 00:42:45;;;;;;;11.77;6.63;;;22.00;81.00;;;19.49;77.33;100157.53;5023150;28;20045;-77
2022/08/14 00:45:15;;;;;;;9.95;6.22;;;22.00;80.80;;;19.56;77.03;100154.59;5026961;28;20049;-77
2022/08/14 00:47:44;;;;;;;9.52;6.88;;;22.00;80.90;;;19.59;77.01;100153.25;5029654;28;20047;-77
2022/08/14 00:50:16;;;;;;;12.00;6.60;;;22.00;81.00;;;19.57;77.08;100147.16;5029958;28;20037;-77
2022/08/14 00:52:45;;;;;;;11.32;7.03;;;22.00;81.10;;;19.57;76.98;100141.63;5029265;28;20038;-77
2022/08/14 00:55:13;;;;;;;9.13;6.47;;;22.00;81.10;;;19.49;77.08;100132.69;5025763;28;20088;-77
2022/08/14 00:57:41;;;;;;;9.43;7.10;;;22.00;81.00;;;19.45;77.96;100137.03;5029844;28;20564;-77
2022/08/14 01:00:13;;;;;;;10.75;6.82;;;22.00;81.40;;;19.39;78.35;100124.25;5028923;28;20037;-77
2022/08/14 01:02:43;;;;;;;9.05;7.00;;;21.90;81.70;;;19.33;79.16;100128.88;5028294;28;20072;-77
2022/08/14 01:05:22;;;;;;;8.13;6.75;;;21.90;82.00;;;19.28;79.46;100125.19;5029402;28;20041;-77
2022/08/14 01:07:53;;;;;;;8.57;6.50;;;21.90;82.10;;;19.23;79.53;100117.69;5029605;28;20049;-80
2022/08/14 01:10:21;;;;;;;9.90;6.68;;;21.90;82.20;;;19.20;80.01;100122.88;5026789;28;20049;-77
2022/08/14 01:12:49;;;;;;;9.25;6.80;;;21.80;82.20;;;19.16;80.13;100121.69;5021366;28;20499;-77
2022/08/14 01:15:20;;;;;;;17.05;7.15;;;21.80;82.40;;;19.16;80.35;100116.19;5011150;28;20037;-77
2022/08/14 01:23:19;;;;;;;9.48;7.07;;;21.80;82.70;;;19.05;80.98;100101.38;5029037;28;20654;-77
2022/08/14 01:25:48;;;;;;;9.57;6.93;;;21.70;82.80;;;19.04;80.82;100103.31;5028647;28;20041;-77
2022/08/14 01:28:16;;;;;;;13.35;7.18;;;21.70;82.90;;;19.02;80.80;100101.88;5028429;28;20056;-77
2022/08/14 01:30:43;;;;;;;10.20;7.20;;;21.70;83.00;;;18.98;80.88;100103.47;5026535;28;20049;-77
2022/08/14 01:33:11;;;;;;;11.20;7.03;;;21.70;82.90;;;18.96;80.87;100100.94;5033288;28;20128;-77
2022/08/14 01:35:45;;;;;;;10.65;7.30;;;21.60;82.80;;;18.93;81.26;100101.47;5032954;28;20053;-77
2022/08/14 01:38:14;;;;;;;9.93;6.85;;;21.60;83.00;;;18.93;80.99;100101.47;5032825;28;20340;-77
2022/08/14 01:40:43;;;;;;;12.50;7.20;;;21.60;83.10;;;18.88;81.50;100107.72;5032157;28;20049;-77
2022/08/14 01:43:16;;;;;;;11.50;7.35;;;21.60;83.20;;;18.85;81.76;100093.59;5033175;28;20056;-77
2022/08/14 01:45:44;;;;;;;10.05;6.90;;;21.60;83.30;;;18.84;81.88;100092.75;5028610;28;20124;-77
2022/08/14 01:48:12;;;;;;;8.38;7.15;;;21.50;83.50;;;18.79;82.39;100083.53;5031070;28;20034;-77
2022/08/14 01:50:40;;;;;;;10.07;6.95;;;21.50;83.60;;;18.74;82.75;100081.53;5032204;28;20057;-77
2022/08/14 01:53:08;;;;;;;9.10;6.90;;;21.50;83.70;;;18.73;82.56;100074.34;5032500;28;20033;-77
2022/08/14 01:55:38;;;;;;;11.43;7.30;;;21.50;83.90;;;18.70;83.00;100072.94;5032464;28;20091;-77
2022/08/14 01:58:09;;;;;;;11.15;7.47;;;21.40;83.90;;;18.67;82.67;100070.66;5032947;28;20044;-77
2022/08/14 02:00:38;;;;;;;16.98;7.57;;;21.40;83.90;;;18.63;83.26;100061.22;5024824;28;20099;-77
2022/08/14 02:03:06;;;;;;;10.05;6.75;;;21.40;84.10;;;18.61;83.59;100068.91;5028176;28;20122;-77
2022/08/14 02:05:34;;;;;;;11.23;7.13;;;21.40;84.50;;;18.59;83.94;100059.22;5031986;28;20041;-77
2022/08/14 02:08:01;;;;;;;10.77;7.00;;;21.50;84.70;;;18.54;84.22;100052.53;5032642;28;20045;-76
2022/08/14 02:10:29;;;;;;;10.38;7.13;;;21.30;84.70;;;18.51;84.21;100060.47;5032623;28;20056;-77
2022/08/14 02:12:56;;;;;;;9.95;6.82;;;21.30;84.70;;;18.51;84.04;100049.44;5032708;28;20045;-77
2022/08/14 02:15:25;;;;;;;9.38;7.28;;;21.30;84.60;;;18.50;83.99;100053.28;5029780;28;20041;-77
2022/08/14 02:17:53;;;;;;;10.27;7.13;;;21.30;84.70;;;18.47;84.54;100042.75;5031934;28;20052;-77
2022/08/14 02:20:20;;;;;;;11.60;7.28;;;21.20;84.80;;;18.49;84.41;100040.59;5032118;28;20041;-77
2022/08/14 02:22:50;;;;;;;9.45;6.57;;;21.20;84.80;;;18.49;84.80;100032.31;5032741;28;20517;-77
2022/08/14 02:25:17;;;;;;;12.73;7.05;;;21.20;85.00;;;18.50;84.81;100036.75;5032203;28;20038;-77
2022/08/14 02:27:45;;;;;;;8.77;7.28;;;21.20;85.20;;;18.49;85.09;100035.91;5032253;28;20132;-77
2022/08/14 02:30:14;;;;;;;10.13;6.93;;;21.20;85.30;;;18.47;85.24;100031.75;5031447;28;20041;-77
2022/08/14 02:32:44;;;;;;;11.02;7.40;;;21.20;85.30;;;18.44;85.59;100032.22;5031042;28;20053;-77
2022/08/14 02:35:16;;;;;;;8.63;7.15;;;21.20;85.60;;;18.40;86.47;100037.41;5027439;28;20124;-77
2022/08/14 02:37:44;;;;;;;9.10;7.07;;;21.20;86.00;;;18.40;86.43;100039.31;5031479;28;20052;-77
2022/08/14 02:40:13;;;;;;;10.88;6.82;;;21.20;86.10;;;18.34;87.10;100033.72;5029974;28;20048;-77
2022/08/14 02:42:40;;;;;;;11.35;7.55;;;21.20;86.30;;;18.29;87.81;100039.13;5032267;28;20041;-77
2022/08/14 02:45:09;;;;;;;8.80;7.13;;;21.10;86.40;;;18.25;87.87;100035.19;5030526;28;20526;-77
2022/08/14 02:47:39;;;;;;;9.93;7.13;;;21.10;86.70;;;18.22;87.85;100032.94;5031868;28;20041;-77
2022/08/14 02:50:08;;;;;;;10.02;7.53;;;21.10;86.60;;;18.16;88.20;100023.75;5030177;28;20044;-77
2022/08/14 02:52:36;;;;;;;12.18;7.75;;;21.10;86.70;;;18.11;88.84;100031.91;5034659;28;20052;-77
2022/08/14 02:55:04;;;;;;;11.82;6.93;;;21.00;86.90;;;18.09;89.50;100025.81;5031673;28;20045;-77
2022/08/14 02:57:31;;;;;;;12.23;7.40;;;21.00;87.20;;;18.09;89.53;100027.75;5032321;28;20100;-77
2022/08/14 02:59:59;;;;;;;12.25;7.85;;;21.00;87.40;;;18.04;89.89;100033.16;5031914;28;20048;-76
2022/08/14 03:02:34;;;;;;;10.43;8.07;;;21.00;87.60;;;18.04;89.78;100027.63;5030294;28;20053;-77
2022/08/14 03:05:01;;;;;;;9.88;7.65;;;20.90;87.50;;;18.02;90.35;100030.63;5031426;28;20049;-77
2022/08/14 03:07:30;;;;;;;11.75;7.88;;;20.90;87.80;;;17.99;90.20;100033.88;5025918;28;20096;-77
2022/08/14 03:09:57;;;;;;;11.02;7.85;;;20.90;87.80;;;18.00;89.67;100032.81;5028538;28;20536;-77
2022/08/14 03:12:26;;;;;;;14.27;7.95;;;20.90;87.60;;;18.02;89.77;100027.06;5030367;28;20116;-77
2022/08/14 03:14:53;;;;;;;12.10;7.85;;;20.90;87.60;;;17.98;90.36;100032.22;5030560;28;20419;-77
2022/08/14 03:17:20;;;;;;;9.52;7.15;;;20.90;88.00;;;18.00;90.46;100031.97;5029061;28;20041;-77
2022/08/14 03:19:48;;;;;;;8.90;7.20;;;20.80;87.90;;;17.93;90.90;100032.97;5031254;28;20077;-77
2022/08/14 03:22:15;;;;;;;9.57;7.63;;;20.80;88.20;;;17.94;90.90;100034.63;5029708;28;20045;-77
2022/08/14 03:24:43;;;;;;;10.50;7.70;;;20.80;88.40;;;17.92;91.15;100035.94;5029978;28;20053;-77
2022/08/14 03:27:12;;;;;;;10.10;7.47;;;20.80;88.50;;;17.94;90.96;100033.78;5030672;28;20043;-77
2022/08/14 03:29:40;;;;;;;10.75;7.82;;;20.80;88.40;;;17.97;90.81;100034.13;5030058;28;20065;-77
2022/08/14 03:32:07;;;;;;;13.30;8.38;;;20.80;88.50;;;18.00;91.02;100034.72;5030544;28;20056;-77
2022/08/14 03:34:36;;;;;;;10.68;7.65;;;20.80;88.60;;;17.98;91.68;100038.53;5031012;28;20094;-77
2022/08/14 03:37:03;;;;;;;12.10;7.90;;;20.80;88.90;;;17.98;92.13;100038.53;5031337;28;20041;-77
2022/08/14 03:39:30;;;;;;;11.65;8.38;;;20.80;88.90;;;18.03;91.92;100039.72;5028829;28;20048;-77
2022/08/14 03:41:59;;;;;;;10.88;8.75;;;20.70;89.00;;;18.03;91.36;100032.31;5030796;28;20048;-77
2022/08/14 03:44:26;;;;;;;10.70;8.18;;;20.80;88.90;;;18.03;91.23;100036.97;5030881;28;20117;-77
2022/08/14 03:46:53;;;;;;;10.70;8.05;;;20.70;89.00;;;18.00;91.67;100031.97;5030606;28;20128;-77
2022/08/14 03:49:23;;;;;;;11.98;8.05;;;20.80;89.20;;;18.00;91.71;100038.31;5030197;28;20053;-77
2022/08/14 03:51:50;;;;;;;12.75;7.80;;;20.80;89.30;;;18.00;91.76;100026.47;5030358;28;20045;-76
2022/08/14 03:54:18;;;;;;;9.68;8.20;;;20.80;89.30;;;17.96;92.29;100021.44;5030593;28;20049;-77
2022/08/14 03:56:45;;;;;;;11.35;8.55;;;20.70;89.40;;;17.94;92.36;100029.09;5011995;28;20131;-77
2022/08/14 03:59:13;;;;;;;10.90;8.38;;;20.70;89.40;;;17.93;92.58;100021.94;5022447;28;20488;-77
2022/08/14 04:01:42;;;;;;;12.48;8.75;;;20.70;89.60;;;17.92;92.90;100025.78;5029463;28;20081;-77
2022/08/14 04:04:10;;;;;;;10.98;8.25;;;20.70;89.70;;;17.91;92.76;100029.59;5030365;28;20507;-77
2022/08/14 04:06:39;;;;;;;12.20;8.30;;;20.70;89.70;;;17.93;93.15;100021.09;5030036;28;20049;-77
2022/08/14 04:09:07;;;;;;;12.13;8.63;;;20.70;89.90;;;17.94;92.87;100018.09;5029988;28;20038;-77
2022/08/14 04:11:35;;;;;;;12.55;8.80;;;20.70;89.90;;;17.93;92.93;100016.44;5030566;28;20060;-77
2022/08/14 04:14:04;;;;;;;12.75;8.50;;;20.70;90.00;;;17.92;93.34;100017.50;5026837;28;20034;-77
2022/08/14 04:16:32;;;;;;;12.68;9.02;;;20.70;90.10;;;17.91;93.33;100013.06;5029501;28;20116;-77
2022/08/14 04:19:03;;;;;;;10.18;8.40;;;20.70;90.30;;;17.93;93.64;100016.44;5029764;28;20814;-77
2022/08/14 04:21:31;;;;;;;9.98;7.63;;;20.60;90.30;;;17.89;93.84;100015.22;5012678;28;20050;-77
2022/08/14 04:24:00;;;;;;;11.18;8.27;;;20.60;90.30;;;17.86;94.28;100007.47;5029567;28;20503;-77
2022/08/14 04:26:30;;;;;;;10.07;8.50;;;20.70;90.50;;;17.90;94.34;100016.91;5030128;28;20484;-77
2022/08/14 04:28:58;;;;;;;10.88;8.00;;;20.60;90.50;;;17.94;93.83;100011.75;5030117;28;20120;-77
2022/08/14 04:31:26;;;;;;;13.57;8.98;;;20.60;90.60;;;17.97;93.67;100001.09;5027699;28;20063;-77
2022/08/14 04:33:54;;;;;;;13.90;8.80;;;20.60;90.60;;;17.94;94.37;100000.75;5011324;28;20434;-77
2022/08/14 04:36:22;;;;;;;11.55;8.90;;;20.60;90.80;;;17.87;95.45;100014.66;5029132;28;20096;-77
2022/08/14 04:44:20;;;;;;;12.50;8.85;;;20.60;91.40;;;17.89;95.44;100001.47;5029592;28;20120;-77
2022/08/14 04:49:30;;;;;;;13.80;8.32;;;20.50;91.60;;;17.98;95.46;99996.41;5028709;28;20110;-77
2022/08/14 04:51:58;;;;;;;13.18;8.35;;;20.60;91.70;;;17.99;95.50;99995.31;5029747;28;20046;-77
2022/08/14 04:54:26;;;;;;;14.38;9.23;;;20.50;91.90;;;18.10;95.01;99994.44;5029798;28;20095;-77
2022/08/14 04:56:54;;;;;;;11.38;9.18;;;20.60;92.00;;;18.08;95.95;99990.25;5016459;28;20548;-77
2022/08/14 04:59:23;;;;;;;10.93;8.23;;;20.50;92.30;;;18.07;96.12;99988.59;5028115;28;20099;-77
2022/08/14 05:01:52;;;;;;;29.88;10.02;;;20.60;92.30;;;18.11;95.98;99992.53;5032528;28;20663;-77
2022/08/14 05:04:21;;;;;;;31.55;10.63;;;20.60;92.30;;;18.10;96.02;99990.84;5023538;28;20041;-78
2022/08/14 05:06:52;;;;;;;17.00;9.13;;;20.60;92.30;;;18.23;95.84;99990.53;5021406;28;20048;-76
2022/08/14 05:09:19;;;;;;;10.68;8.60;;;20.60;92.30;;;18.34;95.04;99989.63;5028964;28;20049;-87
2022/08/14 05:11:46;;;;;;;14.75;8.95;;;20.60;92.30;;;18.38;95.50;99989.97;5029459;28;20065;-89
2022/08/14 05:14:14;;;;;;;11.60;8.75;;;20.60;92.70;;;18.41;95.90;99988.63;5011705;28;20075;-87
2022/08/14 05:16:41;;;;;;;10.32;8.75;;;20.70;93.10;;;18.47;95.41;99979.38;5029365;28;20053;-87
2022/08/14 05:19:09;;;;;;;11.18;8.75;;;20.70;93.20;;;18.50;94.94;99981.63;5011768;28;20048;-87
2022/08/14 05:21:36;;;;;;;11.73;8.65;;;20.70;93.00;;;18.55;95.27;99981.72;5022533;28;20115;-89
2022/08/14 05:24:06;;;;;;;10.55;8.95;;;20.70;93.30;;;18.65;95.52;99979.13;5020492;28;20052;-90
2022/08/14 05:26:33;;;;;;;13.77;9.82;;;20.80;93.40;;;18.80;94.08;99980.44;5022620;28;20046;-89
2022/08/14 05:29:00;;;;;;;11.75;9.32;;;20.80;93.20;;;18.82;94.91;99981.06;5027310;28;20107;-88
2022/08/14 05:31:27;;;;;;;14.88;9.68;;;20.80;93.50;;;18.80;95.24;99983.22;5011620;28;20073;-88
2022/08/14 05:33:55;;;;;;;11.70;8.90;;;20.70;93.60;;;18.86;95.56;99982.22;5012238;28;20046;-90
2022/08/14 05:36:22;;;;;;;12.40;8.63;;;20.80;93.80;;;18.99;94.90;99970.00;5009895;28;20050;-90
2022/08/14 05:38:49;;;;;;;11.93;9.20;;;20.90;94.00;;;19.09;94.45;99978.41;5004915;28;20050;-90
2022/08/14 05:41:20;;;;;;;14.15;8.93;;;20.90;94.20;;;19.24;93.61;99977.81;5011612;28;20467;-89
2022/08/14 05:43:49;;;;;;;11.93;8.82;;;20.90;93.90;;;19.32;94.04;99977.34;5028661;28;20072;-88
2022/08/14 05:46:21;;;;;;;11.65;9.25;;;21.00;94.10;;;19.44;93.67;99975.31;5027226;28;20549;-89
2022/08/14 05:48:49;;;;;;;11.75;8.27;;;21.10;94.20;;;19.52;93.06;99965.75;5010764;28;20414;-89
2022/08/14 05:51:16;;;;;;;14.50;9.25;;;21.10;94.30;;;19.56;93.96;99966.91;5028120;28;20115;-89
2022/08/14 05:53:44;;;;;;;11.75;8.82;;;21.20;94.70;;;19.67;93.87;99967.88;5027614;28;20046;-90
2022/08/14 05:56:11;;;;;;;10.85;9.15;;;21.20;94.80;;;19.74;94.40;99971.28;5007986;28;20209;-92
2022/08/14 05:58:40;;;;;;;11.05;9.18;;;21.20;94.90;;;19.89;92.31;99965.91;5028736;28;20041;-93
2022/08/14 06:01:10;;;;;;;16.92;9.27;;;21.30;94.90;;;20.02;93.08;99977.66;5012798;28;20521;-92
2022/08/14 06:03:37;;;;;;;11.27;9.40;;;21.30;94.80;;;20.15;91.70;99974.47;5013404;28;20081;-92
2022/08/14 06:06:05;;;;;;;12.75;9.88;;;21.40;94.70;;;20.38;89.25;99970.53;5013409;28;20046;-92
2022/08/14 06:08:33;;;;;;;12.68;9.95;;;21.50;94.00;;;20.55;87.74;99961.28;5030451;28;20558;-94
2022/08/14 06:11:04;;;;;;;13.15;10.10;;;21.60;93.10;;;20.63;87.86;99969.94;5029507;28;20056;-93
2022/08/14 06:13:34;;;;;;;14.32;9.90;;;21.60;93.20;;;20.76;84.84;99967.84;5007351;28;20057;-93
2022/08/14 06:16:03;;;;;;;14.18;9.45;;;21.70;92.50;;;20.88;85.18;99965.69;5030083;28;20050;-93
2022/08/14 06:18:32;;;;;;;12.80;9.57;;;21.80;92.20;;;20.95;84.64;99968.25;5013303;28;20081;-92
2022/08/14 06:20:59;;;;;;;13.93;9.73;;;21.80;92.10;;;21.04;84.49;99970.22;5021300;28;20451;-91
2022/08/14 06:23:26;;;;;;;20.50;10.88;;;21.90;92.20;;;21.08;84.80;99967.75;5031037;28;20132;-80
2022/08/14 06:25:53;;;;;;;14.43;10.18;;;21.90;92.20;;;21.25;84.32;99964.81;5031975;28;20124;-79
2022/08/14 06:28:24;;;;;;;13.82;9.98;;;22.00;92.20;;;21.56;81.02;99968.56;5027218;28;20120;-83
2022/08/14 06:30:53;;;;;;;17.23;11.15;;;22.10;91.20;;;21.91;79.47;99963.41;5028924;28;20037;-79
2022/08/14 06:33:23;;;;;;;15.15;10.80;;;22.20;90.60;;;22.12;78.11;99961.50;5019550;28;20116;-84
2022/08/14 06:35:50;;;;;;;17.65;9.55;;;22.30;90.60;;;22.34;78.58;99952.97;5032211;28;20048;-83
2022/08/14 06:38:22;;;;;;;14.63;10.77;;;22.30;90.80;;;22.51;78.04;99958.25;5030795;28;20048;-85
2022/08/14 06:40:51;;;;;;;12.98;9.32;;;22.40;90.50;;;22.69;78.63;99949.34;5008535;28;20149;-85
2022/08/14 06:43:19;;;;;;;13.35;10.15;;;22.50;91.60;;;22.82;74.85;99947.94;5029647;28;20057;-85
2022/08/14 06:45:50;;;;;;;14.65;9.65;;;22.60;89.80;;;22.98;73.11;99945.97;5012700;28;20052;-85
2022/08/14 06:48:22;;;;;;;11.73;10.00;;;22.70;89.20;;;23.09;73.55;99942.06;5031117;28;20112;-86
2022/08/14 06:50:52;;;;;;;11.80;9.35;;;22.80;89.20;;;23.12;73.33;99935.16;5012747;28;20045;-85
2022/08/14 06:53:19;;;;;;;12.15;9.07;;;22.90;89.00;;;23.18;74.29;99939.56;5030821;28;20495;-85
2022/08/14 06:55:47;;;;;;;12.88;9.10;;;22.90;89.50;;;23.28;73.71;99952.56;5032444;28;20041;-84
2022/08/14 06:58:18;;;;;;;14.23;9.48;;;23.00;89.50;;;23.29;72.81;99941.19;5030566;28;20037;-84
2022/08/14 07:06:14;;;;;;;10.60;8.68;;;23.20;88.20;;;23.29;73.14;99949.53;5031904;28;20052;-93
2022/08/14 07:08:43;;;;;;;13.55;9.02;;;23.20;88.00;;;23.31;73.11;99941.72;5031613;28;20076;-92
2022/08/14 07:11:12;;;;;;;12.77;9.57;;;23.20;88.50;;;23.32;73.51;99935.09;5033399;28;20099;-93
2022/08/14 07:13:40;;;;;;;15.68;9.88;;;23.30;88.80;;;23.40;73.34;99931.69;5031729;28;20451;-87
2022/08/14 07:16:08;;;;;;;12.93;9.02;;;23.30;89.00;;;23.47;72.44;99936.94;5028066;28;20282;-80
2022/08/14 07:18:37;;;;;;;14.10;8.95;;;23.40;88.20;;;23.60;73.29;99935.50;5022235;28;20058;-77
2022/08/14 07:21:06;;;;;;;11.88;8.85;;;23.40;88.60;;;23.65;71.99;99932.69;5028327;28;20079;-78
2022/08/14 07:23:34;;;;;;;12.70;8.63;;;23.50;88.10;;;23.79;71.28;99922.63;5029216;28;20474;-78
2022/08/14 07:26:03;;;;;;;11.00;8.48;;;23.50;87.80;;;23.91;70.79;99933.41;5029995;28;20045;-82
2022/08/14 07:28:33;;;;;;;13.13;9.38;;;23.60;87.70;;;23.92;70.76;99925.91;5030685;28;20046;-83
2022/08/14 07:31:04;;;;;;;11.30;8.50;;;23.60;87.50;;;23.96;69.80;99924.19;5031059;28;20033;-86
2022/08/14 07:33:36;;;;;;;10.85;8.65;;;23.70;87.00;;;24.03;69.95;99929.41;5011741;28;20045;-83
2022/08/14 07:36:09;;;;;;;13.70;8.90;;;23.70;87.00;;;24.08;69.52;99919.09;5008498;28;20482;-83
2022/08/14 07:38:39;;;;;;;12.65;8.95;;;23.80;86.70;;;24.14;68.71;99915.19;5029143;28;20039;-83
2022/08/14 07:41:09;;;;;;;13.02;9.30;;;23.80;86.00;;;24.22;68.99;99915.66;5030865;28;20104;-83
2022/08/14 07:43:37;;;;;;;12.63;9.00;;;23.90;86.40;;;24.31;69.88;99914.78;5041958;28;20437;-83
2022/08/14 07:46:05;;;;;;;10.95;9.13;;;24.00;87.00;;;24.45;71.23;99917.69;5040004;28;20041;-84
2022/08/14 07:48:37;;;;;;;11.77;9.10;;;24.10;88.20;;;24.54;68.51;99915.97;5031230;28;20563;-87
2022/08/14 07:51:06;;;;;;;9.50;8.25;;;24.10;86.60;;;24.56;67.58;99908.16;5028703;28;20590;-86
2022/08/14 07:53:33;;;;;;;10.90;8.77;;;24.20;85.50;;;24.66;67.78;99912.81;5028871;28;20045;-88
2022/08/14 07:56:01;;;;;;;10.13;8.52;;;24.20;85.70;;;24.72;66.75;99913.59;5029861;28;20061;-86
2022/08/14 07:58:28;;;;;;;10.65;8.48;;;24.20;85.30;;;24.73;66.35;99907.72;5013344;28;20071;-87
2022/08/14 08:00:56;;;;;;;10.77;8.88;;;24.30;84.80;;;24.85;69.31;99901.75;5029001;28;20065;-85
2022/08/14 08:03:26;;;;;;;12.43;9.02;;;24.40;87.60;;;24.93;67.34;99900.28;5012352;28;20049;-87
2022/08/14 08:05:53;;;;;;;13.43;9.45;;;24.50;85.30;;;24.98;67.16;99895.47;5028467;28;20136;-87
2022/08/14 08:08:23;;;;;;;12.05;8.75;;;24.60;85.20;;;25.04;65.56;99890.69;5025141;28;20073;-88
2022/08/14 08:10:54;;;;;;;10.35;8.55;;;24.60;84.50;;;25.11;67.09;99898.66;5005053;28;20136;-87
2022/08/14 08:13:21;;;;;;;;;;;24.60;85.60;;;25.13;65.81;99899.19;5017400;28;20123;-90
2022/08/14 08:15:56;;;;;;;11.00;8.90;;;24.70;84.70;;;25.08;65.54;99883.38;5011750;28;20368;-91
2022/08/14 08:18:25;;;;;;;10.85;9.00;;;24.60;84.00;;;25.17;65.07;99886.34;5016299;28;20197;-92
2022/08/14 08:20:55;;;;;;;12.43;9.20;;;24.70;83.90;;;25.23;67.67;99882.41;5028637;28;20068;-87
2022/08/14 08:23:25;;;;;;;12.15;8.70;;;24.80;86.00;;;25.29;66.00;99881.22;5014298;28;20045;-87
2022/08/14 08:25:52;;;;;;;10.95;8.38;;;24.80;84.40;;;25.35;64.95;99884.75;5009585;28;20518;-85
2022/08/14 08:28:22;;;;;;;10.63;8.35;;;24.90;83.50;;;25.41;64.70;99882.72;5023649;28;20041;-89
2022/08/14 08:30:53;;;;;;;13.23;8.60;;;25.00;83.70;;;25.50;65.97;99883.72;5012101;28;20045;-86
2022/08/14 08:33:24;;;;;;;10.68;8.77;;;25.00;84.70;;;25.59;65.12;99876.34;5011012;28;20132;-89
2022/08/14 08:35:52;;;;;;;10.60;8.57;;;25.10;84.10;;;25.54;63.24;99877.25;5028234;28;20042;-89
2022/08/14 08:38:24;;;;;;;10.02;8.43;;;25.10;81.90;;;25.52;63.58;99875.88;5029325;28;20068;-89
2022/08/14 08:40:56;;;;;;;12.07;8.88;;;25.10;82.40;;;25.59;64.00;99872.72;5028199;28;20171;-89
2022/08/14 08:43:26;;;;;;;10.18;8.63;;;25.10;82.60;;;25.67;63.99;99880.41;5007303;28;20046;-88
2022/08/14 08:45:55;;;;;;;9.85;7.97;;;25.20;83.00;;;25.69;63.72;99876.19;5007776;28;20144;-89
2022/08/14 08:48:23;;;;;;;13.05;8.73;;;25.20;82.50;;;25.77;64.00;99883.03;5029909;28;20042;-88
2022/08/14 08:50:50;;;;;;;15.50;8.70;;;25.30;82.70;;;25.80;62.41;99878.81;5011805;28;20045;-89
2022/08/14 08:53:17;;;;;;;11.35;8.10;;;25.30;81.50;;;25.80;61.90;99884.38;5030300;28;20116;-88
2022/08/14 08:55:46;;;;;;;12.25;8.00;;;25.30;81.10;;;25.88;62.30;99883.72;5048246;28;20044;-89
2022/08/14 08:58:16;;;;;;;13.00;8.82;;;25.40;81.60;;;25.89;61.55;99883.44;5020112;28;20046;-89
2022/08/14 09:00:48;;;;;;;10.88;8.00;;;25.40;80.80;;;25.89;61.66;99879.78;5031016;28;20186;-89
2022/08/14 09:03:20;;;;;;;12.52;8.65;;;25.40;80.80;;;25.97;62.66;99878.31;5025105;28;20045;-89
2022/08/14 09:05:54;;;;;;;13.98;8.27;;;25.50;81.90;;;26.04;61.10;99878.75;5029758;28;20091;-89
2022/08/14 09:08:24;;;;;;;12.18;8.27;;;25.60;80.30;;;26.07;62.50;99878.16;5011426;28;20072;-88
2022/08/14 09:10:54;;;;;;;11.10;8.25;;;25.60;81.30;;;26.11;60.99;99863.28;5027825;28;20140;-88
2022/08/14 09:13:24;;;;;;;11.15;8.65;;;25.60;79.80;;;26.17;61.56;99860.44;5028859;28;20133;-89
2022/08/14 09:15:54;;;;;;;11.57;8.35;;;25.70;80.40;;;26.14;60.05;99857.13;5026170;28;20484;-89
2022/08/14 09:18:26;;;;;;;11.15;8.70;;;25.70;79.10;;;26.14;60.47;99857.13;5021447;28;20050;-89
2022/08/14 09:20:55;;;;;;;9.70;8.07;;;25.70;79.80;;;26.12;60.58;99851.03;5010893;28;20054;-89
2022/08/14 09:23:23;;;;;;;22.60;8.95;;;25.70;79.40;;;26.21;61.24;99848.34;5029909;28;20080;-89
2022/08/14 09:25:53;;;;;;;10.65;8.40;;;25.80;79.80;;;26.24;60.43;99858.09;5029582;28;20048;-89
2022/08/14 09:28:21;;;;;;;9.33;8.27;;;25.90;79.10;;;26.23;60.32;99853.63;5026992;28;20051;-89
2022/08/14 09:30:52;;;;;;;9.95;8.15;;;25.90;79.20;;;26.19;58.56;99858.16;5027560;28;20565;-88
2022/08/14 09:34:06;;;;;;;9.52;7.60;;;25.80;77.40;;;26.24;59.35;99852.50;5004045;28;20045;-89
2022/08/14 09:37:27;;;;;;;11.77;8.27;;;25.80;78.20;;;26.31;58.76;99852.91;4932673;29;20055;-88
2022/08/14 09:40:11;;;;;;;13.40;7.55;;;25.80;77.50;;;26.36;56.74;99852.00;5012133;28;20132;-89
2022/08/14 09:42:52;;;;;;;10.18;7.55;;;25.90;76.10;;;26.38;58.06;99846.94;5029710;28;20069;-89
2022/08/14 09:45:28;;;;;;;11.20;7.88;;;25.90;77.50;;;26.50;58.49;99842.53;5029278;28;20045;-88
2022/08/14 09:47:57;;;;;;;9.05;7.50;;;26.00;78.30;;;26.39;57.00;99835.50;5011261;28;20053;-89
2022/08/14 09:50:28;;;;;;;8.07;7.22;;;26.00;76.20;;;26.39;56.81;99835.50;5007605;28;20033;-89
2022/08/14 09:53:01;;;;;;;8.45;7.22;;;26.00;75.90;;;26.42;55.15;99820.91;5033300;28;20116;-89
2022/08/14 09:55:31;;;;;;;10.82;6.90;;;26.00;74.40;;;26.49;55.74;99821.34;5033061;28;20049;-89
2022/08/14 09:58:12;;;;;;;9.33;7.73;;;26.00;75.00;;;26.45;55.94;99811.94;5033203;28;20033;-90
2022/08/14 10:00:45;;;;;;;;;;;26.10;75.10;;;26.45;54.75;99811.94;5015746;28;20065;-89
2022/08/14 10:03:13;;;;;;;8.25;7.03;;;26.10;74.50;;;26.36;54.73;99808.19;5033262;28;20375;-89
2022/08/14 10:05:40;;;;;;;8.07;6.68;;;26.00;73.80;;;26.42;54.76;99804.16;5030362;28;20127;-89
2022/08/14 10:08:20;;;;;;;8.63;6.72;;;26.00;74.00;;;26.50;55.02;99795.09;5006913;28;20136;-89
2022/08/14 10:10:47;;;;;;;8.90;6.43;;;26.10;74.20;;;26.53;53.14;99797.25;5015575;28;20049;-89
2022/08/14 10:13:25;;;;;;;10.70;6.68;;;26.20;72.20;;;26.48;53.37;99788.16;5015432;28;20261;-89
2022/08/14 10:15:59;;;;;;;7.50;6.47;;;26.20;72.30;;;26.52;53.44;99778.00;5014590;28;20046;-89
2022/08/14 10:18:28;;;;;;;11.07;6.50;;;26.10;72.60;;;26.41;53.11;99782.16;5015204;28;20057;-89
2022/08/14 10:20:59;;;;;;;9.20;6.55;;;26.10;72.30;;;26.46;52.20;99787.63;5008348;28;20084;-89
2022/08/14 10:23:29;;;;;;;7.45;6.45;;;26.10;71.50;;;26.48;52.83;99786.22;5006942;28;20058;-90
2022/08/14 10:26:04;;;;;;;7.22;6.25;;;26.10;72.10;;;26.43;52.08;99777.94;5032967;28;20128;-90
2022/08/14 10:28:42;;;;;;;8.63;6.45;;;26.10;71.30;;;26.44;53.75;99782.34;5033126;28;20092;-89
2022/08/14 10:31:32;;;;;;;8.07;6.32;;;26.10;72.80;;;26.49;53.58;99767.50;5014757;28;20140;-90
2022/08/14 10:34:02;;;;;;;15.18;6.90;;;26.10;72.60;;;26.50;54.35;99769.97;5010118;28;20052;-89
2022/08/14 10:36:32;;;;;;;8.95;6.30;;;26.10;73.20;;;26.59;53.88;99774.81;5014868;28;20220;-90
2022/08/14 10:39:04;;;;;;;7.78;6.80;;;26.20;73.20;;;26.69;52.50;99771.84;5013722;28;20076;-89